createdAt,value
2022-12-31T00:01:32.828Z,9.91
2022-12-31T00:04:00.812Z,8.79
2022-12-31T00:06:31.436Z,7.67
2022-12-31T00:09:01.515Z,6.84
2022-12-31T00:11:30.952Z,6.61
2022-12-31T00:13:59.437Z,8.03
2022-12-31T00:16:30.044Z,9.61
2022-12-31T00:19:00.151Z,10.06
2022-12-31T00:21:31.453Z,8.75
2022-12-31T00:24:00.053Z,7.48
2022-12-31T00:26:31.252Z,6.62
2022-12-31T00:29:00.408Z,6.37
2022-12-31T00:31:34.328Z,7.98
2022-12-31T00:34:02.944Z,9.62
2022-12-31T00:36:34.994Z,10.17
2022-12-31T00:39:04.799Z,8.97
2022-12-31T00:41:32.872Z,7.75
2022-12-31T00:44:01.179Z,6.92
2022-12-31T00:46:29.398Z,6.75
2022-12-31T00:48:57.676Z,8.34
2022-12-31T00:51:27.884Z,9.74
2022-12-31T00:53:56.998Z,10.61
2022-12-31T00:56:27.547Z,10.81
2022-12-31T00:58:55.921Z,9.57
2022-12-31T01:01:27.232Z,8.36
2022-12-31T01:04:07.344Z,7.54
2022-12-31T01:06:35.871Z,7.47
2022-12-31T01:09:05.191Z,9.21
2022-12-31T01:11:33.646Z,10.58
2022-12-31T01:14:13.965Z,10.90
2022-12-31T01:16:45.923Z,9.70
2022-12-31T01:19:16.938Z,8.51
2022-12-31T01:21:46.003Z,7.69
2022-12-31T01:24:14.205Z,7.11
2022-12-31T01:26:42.848Z,7.05
2022-12-31T01:29:13.570Z,8.67
2022-12-31T01:31:41.928Z,10.06
2022-12-31T01:34:10.239Z,10.57
2022-12-31T01:37:07.923Z,9.52
2022-12-31T01:39:35.886Z,8.12
2022-12-31T01:42:03.950Z,7.25
2022-12-31T01:44:31.862Z,6.60
2022-12-31T01:47:04.243Z,6.45
2022-12-31T01:49:41.829Z,8.03
2022-12-31T01:52:22.806Z,9.52
2022-12-31T01:54:58.260Z,10.22
2022-12-31T01:57:27.501Z,9.01
2022-12-31T01:59:56.900Z,7.70
2022-12-31T02:02:25.104Z,7.17
2022-12-31T02:04:55.891Z,8.47
2022-12-31T02:07:23.929Z,9.70
2022-12-31T02:09:54.265Z,10.04
2022-12-31T02:12:23.061Z,8.89
2022-12-31T02:14:53.880Z,7.64
2022-12-31T02:17:51.935Z,7.20
2022-12-31T02:20:51.601Z,8.83
2022-12-31T02:23:22.782Z,10.04
2022-12-31T02:26:15.536Z,10.72
2022-12-31T02:28:52.533Z,10.68
2022-12-31T02:31:32.821Z,9.29
2022-12-31T02:34:13.875Z,8.11
2022-12-31T02:36:47.384Z,7.19
2022-12-31T02:39:15.959Z,6.97
2022-12-31T02:41:51.450Z,8.38
2022-12-31T02:44:30.426Z,9.74
2022-12-31T02:47:21.121Z,10.28
2022-12-31T02:50:23.171Z,10.17
2022-12-31T02:53:09.730Z,8.74
2022-12-31T02:55:53.307Z,7.64
2022-12-31T02:58:52.627Z,7.35
2022-12-31T03:01:45.719Z,9.04
2022-12-31T03:04:33.357Z,10.03
2022-12-31T03:07:08.854Z,10.50
2022-12-31T03:09:37.607Z,10.52
2022-12-31T03:12:26.578Z,9.35
2022-12-31T03:14:54.548Z,8.12
2022-12-31T03:17:22.991Z,7.33
2022-12-31T03:21:05.612Z,7.10
2022-12-31T03:23:38.137Z,8.82
2022-12-31T03:26:12.522Z,9.57
2022-12-31T03:28:43.551Z,9.96
2022-12-31T03:31:11.640Z,9.91
2022-12-31T03:33:41.895Z,8.67
2022-12-31T03:36:12.856Z,7.51
2022-12-31T03:38:41.129Z,7.85
2022-12-31T03:41:11.445Z,8.78
2022-12-31T03:43:39.450Z,9.39
2022-12-31T03:46:07.425Z,9.67
2022-12-31T03:48:35.361Z,9.99
2022-12-31T03:51:06.150Z,10.31
2022-12-31T03:53:35.771Z,10.33
2022-12-31T03:56:04.065Z,9.30
2022-12-31T03:58:32.045Z,8.25
2022-12-31T04:01:00.035Z,7.78
2022-12-31T04:03:28.826Z,8.59
2022-12-31T04:05:57.127Z,9.49
2022-12-31T04:08:25.519Z,10.29
2022-12-31T04:10:53.573Z,11.15
2022-12-31T04:13:21.747Z,11.21
2022-12-31T04:15:52.054Z,9.95
2022-12-31T04:18:20.025Z,8.77
2022-12-31T04:20:47.978Z,8.29
2022-12-31T04:23:17.092Z,9.33
2022-12-31T04:25:45.052Z,10.57
2022-12-31T04:28:15.136Z,11.29
2022-12-31T04:30:44.080Z,11.43
2022-12-31T04:33:12.092Z,10.34
2022-12-31T04:35:40.063Z,9.24
2022-12-31T04:38:08.017Z,8.43
2022-12-31T04:40:55.934Z,8.10
2022-12-31T04:43:24.760Z,8.97
2022-12-31T04:45:52.763Z,10.22
2022-12-31T04:52:51.016Z,10.58
2022-12-31T04:55:18.983Z,9.16
2022-12-31T04:57:46.919Z,9.23
2022-12-31T05:00:15.207Z,10.64
2022-12-31T05:02:43.348Z,11.46
2022-12-31T05:05:11.450Z,11.44
2022-12-31T05:07:39.448Z,10.35
2022-12-31T05:10:07.979Z,9.21
2022-12-31T05:12:35.982Z,8.76
2022-12-31T05:15:04.263Z,9.76
2022-12-31T05:17:32.214Z,10.98
2022-12-31T05:20:00.303Z,11.64
2022-12-31T05:22:33.087Z,11.68
2022-12-31T05:25:01.466Z,10.64
2022-12-31T05:27:31.420Z,9.57
2022-12-31T05:30:00.052Z,9.12
2022-12-31T05:32:28.251Z,10.50
2022-12-31T05:34:58.152Z,11.56
2022-12-31T05:37:29.235Z,11.90
2022-12-31T05:40:01.105Z,11.21
2022-12-31T05:42:29.096Z,10.00
2022-12-31T05:44:57.130Z,9.45
2022-12-31T05:47:25.571Z,10.72
2022-12-31T05:49:53.633Z,11.70
2022-12-31T05:52:21.728Z,12.07
2022-12-31T05:54:49.757Z,11.91
2022-12-31T05:57:17.731Z,10.75
2022-12-31T05:59:45.709Z,9.69
2022-12-31T06:02:13.889Z,9.32
2022-12-31T06:05:10.237Z,10.61
2022-12-31T06:07:38.261Z,11.59
2022-12-31T06:10:07.124Z,12.14
2022-12-31T06:12:35.738Z,12.51
2022-12-31T06:15:04.373Z,12.53
2022-12-31T06:17:34.403Z,11.23
2022-12-31T06:20:05.997Z,10.48
2022-12-31T06:22:36.899Z,11.60
2022-12-31T06:25:05.316Z,12.25
2022-12-31T06:27:33.743Z,12.56
2022-12-31T06:30:01.736Z,12.58
2022-12-31T06:32:29.677Z,11.39
2022-12-31T06:34:57.593Z,10.30
2022-12-31T06:37:31.034Z,9.88
2022-12-31T06:40:01.131Z,11.06
2022-12-31T06:42:31.033Z,12.12
2022-12-31T06:44:59.733Z,12.61
2022-12-31T06:47:27.711Z,13.03
2022-12-31T06:49:55.933Z,13.13
2022-12-31T06:52:23.979Z,12.16
2022-12-31T06:55:17.115Z,11.05
2022-12-31T06:57:45.339Z,10.84
2022-12-31T07:00:14.619Z,12.46
2022-12-31T07:02:59.415Z,13.52
2022-12-31T07:05:36.490Z,13.71
2022-12-31T07:08:29.607Z,12.41
2022-12-31T07:11:52.928Z,11.11
2022-12-31T07:14:57.812Z,11.12
2022-12-31T07:17:50.579Z,12.85
2022-12-31T07:20:19.822Z,13.91
2022-12-31T07:22:48.314Z,14.01
2022-12-31T07:26:11.869Z,12.71
2022-12-31T07:28:57.798Z,11.24
2022-12-31T07:31:28.788Z,11.04
2022-12-31T07:34:12.472Z,12.52
2022-12-31T07:37:04.957Z,13.90
2022-12-31T07:39:41.838Z,14.18
2022-12-31T07:42:33.182Z,12.92
2022-12-31T07:45:34.945Z,11.77
2022-12-31T07:48:03.335Z,11.63
2022-12-31T07:54:49.844Z,14.87
2022-12-31T07:57:20.580Z,15.02
2022-12-31T08:00:19.217Z,13.86
2022-12-31T08:03:03.083Z,12.59
2022-12-31T08:05:50.577Z,11.79
2022-12-31T08:08:33.261Z,11.75
2022-12-31T08:11:15.874Z,13.46
2022-12-31T08:13:44.275Z,14.24
2022-12-31T08:16:14.757Z,13.13
2022-12-31T08:18:42.992Z,12.00
2022-12-31T08:21:14.403Z,11.65
2022-12-31T08:24:23.021Z,13.14
2022-12-31T08:27:34.283Z,14.37
2022-12-31T08:30:13.480Z,12.97
2022-12-31T08:33:13.028Z,11.77
2022-12-31T08:36:32.920Z,11.70
2022-12-31T08:39:42.363Z,13.68
2022-12-31T08:42:33.344Z,14.11
2022-12-31T08:45:28.735Z,12.83
2022-12-31T08:48:03.156Z,12.37
2022-12-31T08:50:31.451Z,13.75
2022-12-31T08:53:00.156Z,14.96
2022-12-31T08:55:33.475Z,15.07
2022-12-31T08:58:22.638Z,13.84
2022-12-31T09:00:56.997Z,12.73
2022-12-31T09:03:49.657Z,12.36
2022-12-31T09:06:27.266Z,14.00
2022-12-31T09:09:07.338Z,14.84
2022-12-31T09:12:04.942Z,13.73
2022-12-31T09:14:50.126Z,12.43
2022-12-31T09:17:37.129Z,12.22
2022-12-31T09:20:42.807Z,13.90
2022-12-31T09:23:13.420Z,15.20
2022-12-31T09:26:16.009Z,14.60
2022-12-31T09:29:02.830Z,13.25
2022-12-31T09:31:49.540Z,12.52
2022-12-31T09:34:30.758Z,12.64
2022-12-31T09:37:29.581Z,14.39
2022-12-31T09:40:05.439Z,15.17
2022-12-31T09:43:02.514Z,14.27
2022-12-31T09:45:40.186Z,13.25
2022-12-31T09:48:26.339Z,12.61
2022-12-31T09:51:09.597Z,12.92
2022-12-31T09:54:14.134Z,14.87
2022-12-31T09:57:15.316Z,15.39
2022-12-31T09:59:49.324Z,14.24
2022-12-31T10:02:39.402Z,13.45
2022-12-31T10:05:51.471Z,13.55
2022-12-31T10:08:33.845Z,15.38
2022-12-31T10:11:35.990Z,15.06
2022-12-31T10:14:28.309Z,13.85
2022-12-31T10:17:18.217Z,13.80
2022-12-31T10:19:46.353Z,15.49
2022-12-31T10:22:51.808Z,15.65
2022-12-31T10:28:29.846Z,13.51
2022-12-31T10:31:13.186Z,14.48
2022-12-31T10:34:05.608Z,16.04
2022-12-31T10:37:11.208Z,15.38
2022-12-31T10:39:55.209Z,14.18
2022-12-31T10:43:01.507Z,14.12
2022-12-31T10:45:29.508Z,16.04
2022-12-31T10:52:41.693Z,14.11
2022-12-31T10:55:47.513Z,15.19
2022-12-31T10:58:27.850Z,16.54
2022-12-31T11:00:58.801Z,15.69
2022-12-31T11:04:46.770Z,14.61
2022-12-31T11:07:26.398Z,15.05
2022-12-31T11:10:27.500Z,16.36
2022-12-31T11:13:29.462Z,15.90
2022-12-31T11:16:36.220Z,14.69
2022-12-31T11:19:27.085Z,14.61
2022-12-31T11:22:20.427Z,15.87
2022-12-31T11:25:11.456Z,16.15
2022-12-31T11:28:15.257Z,15.23
2022-12-31T11:31:03.670Z,14.26
2022-12-31T11:33:50.274Z,15.01
2022-12-31T11:36:33.841Z,16.83
2022-12-31T11:39:27.310Z,15.97
2022-12-31T11:42:51.927Z,14.91
2022-12-31T11:45:31.433Z,14.18
2022-12-31T11:48:31.318Z,14.68
2022-12-31T11:51:12.168Z,16.74
2022-12-31T11:53:49.021Z,16.70
2022-12-31T11:56:23.174Z,15.65
2022-12-31T11:58:54.952Z,14.87
2022-12-31T12:01:41.811Z,14.49
2022-12-31T12:04:11.353Z,15.55
2022-12-31T12:06:40.626Z,17.17
2022-12-31T12:09:27.818Z,17.02
2022-12-31T12:12:03.322Z,16.39
2022-12-31T12:14:37.170Z,15.88
2022-12-31T12:17:57.885Z,15.40
2022-12-31T12:20:38.470Z,15.10
2022-12-31T12:23:35.915Z,14.96
2022-12-31T12:26:07.243Z,14.80
2022-12-31T12:28:46.254Z,14.56
2022-12-31T12:31:22.659Z,14.94
2022-12-31T12:33:52.337Z,16.63
2022-12-31T12:36:22.127Z,16.63
2022-12-31T12:39:06.842Z,15.72
2022-12-31T12:41:34.978Z,14.87
2022-12-31T12:44:08.934Z,14.37
2022-12-31T12:46:48.487Z,14.60
2022-12-31T12:49:24.202Z,16.42
2022-12-31T12:52:38.741Z,16.66
2022-12-31T12:55:14.217Z,15.41
2022-12-31T12:58:04.048Z,14.70
2022-12-31T13:00:37.920Z,14.25
2022-12-31T13:03:27.813Z,15.37
2022-12-31T13:06:34.629Z,16.85
2022-12-31T13:09:35.626Z,16.68
2022-12-31T13:12:25.983Z,15.53
2022-12-31T13:15:18.851Z,14.76
2022-12-31T13:17:51.448Z,14.22
2022-12-31T13:20:34.707Z,14.76
2022-12-31T13:23:18.244Z,16.28
2022-12-31T13:26:01.442Z,16.62
2022-12-31T13:28:31.890Z,15.61
2022-12-31T13:31:06.959Z,14.85
2022-12-31T13:33:48.014Z,14.29
2022-12-31T13:36:23.834Z,14.40
2022-12-31T13:38:54.531Z,16.00
2022-12-31T13:41:49.719Z,16.63
2022-12-31T13:44:33.636Z,15.63
2022-12-31T13:47:27.627Z,14.84
2022-12-31T13:50:08.353Z,14.22
2022-12-31T13:52:56.026Z,14.39
2022-12-31T13:55:29.991Z,16.11
2022-12-31T13:58:16.377Z,16.73
2022-12-31T14:00:58.736Z,15.81
2022-12-31T14:04:04.079Z,15.05
2022-12-31T14:07:10.496Z,14.69
2022-12-31T14:09:38.610Z,14.40
2022-12-31T14:12:18.042Z,15.28
2022-12-31T14:15:38.651Z,16.71
2022-12-31T14:18:18.697Z,16.68
2022-12-31T14:20:58.645Z,15.66
2022-12-31T14:23:39.618Z,14.86
2022-12-31T14:26:26.086Z,14.30
2022-12-31T14:29:12.470Z,14.45
2022-12-31T14:31:49.402Z,16.09
2022-12-31T14:34:40.517Z,16.72
2022-12-31T14:41:56.024Z,14.46
2022-12-31T14:44:44.427Z,14.53
2022-12-31T14:51:50.235Z,16.50
2022-12-31T14:54:34.573Z,15.40
2022-12-31T15:03:05.818Z,15.82
2022-12-31T15:05:36.708Z,16.46
2022-12-31T15:08:26.637Z,15.38
2022-12-31T15:11:16.200Z,14.46
2022-12-31T15:14:14.633Z,14.36
2022-12-31T15:17:04.639Z,16.12
2022-12-31T15:20:03.660Z,16.74
2022-12-31T15:22:45.299Z,15.48
2022-12-31T15:25:25.791Z,14.56
2022-12-31T15:27:55.397Z,14.32
2022-12-31T15:30:32.617Z,15.64
2022-12-31T15:33:04.786Z,16.46
2022-12-31T15:35:46.417Z,15.66
2022-12-31T15:38:14.380Z,14.63
2022-12-31T15:40:45.712Z,14.34
2022-12-31T15:43:25.983Z,15.41
2022-12-31T15:45:56.068Z,16.37
2022-12-31T15:48:37.724Z,15.77
2022-12-31T15:51:09.680Z,14.69
2022-12-31T15:53:44.180Z,14.33
2022-12-31T15:56:19.876Z,15.52
2022-12-31T15:58:53.926Z,16.39
2022-12-31T16:01:36.364Z,16.53
2022-12-31T16:04:14.630Z,15.50
2022-12-31T16:06:48.905Z,14.50
2022-12-31T16:09:30.732Z,14.09
2022-12-31T16:12:00.224Z,15.00
2022-12-31T16:14:43.792Z,15.76
2022-12-31T16:17:36.339Z,16.36
2022-12-31T16:20:25.967Z,16.37
2022-12-31T16:22:57.617Z,15.24
2022-12-31T16:25:31.108Z,14.36
2022-12-31T16:28:02.143Z,13.92
2022-12-31T16:30:36.070Z,14.94
2022-12-31T16:33:07.083Z,15.94
2022-12-31T16:35:37.339Z,16.10
2022-12-31T16:38:08.301Z,15.27
2022-12-31T16:40:36.293Z,14.36
2022-12-31T16:43:04.515Z,13.68
2022-12-31T16:45:36.706Z,13.48
2022-12-31T16:48:19.125Z,14.50
2022-12-31T16:50:53.836Z,15.41
2022-12-31T16:53:27.236Z,15.87
2022-12-31T16:56:04.910Z,16.17
2022-12-31T16:58:36.033Z,16.12
2022-12-31T17:01:18.436Z,15.12
2022-12-31T17:03:51.489Z,14.14
2022-12-31T17:06:21.648Z,13.91
2022-12-31T17:08:55.826Z,15.42
2022-12-31T17:11:39.386Z,16.69
2022-12-31T17:14:07.813Z,16.33
2022-12-31T17:16:37.964Z,15.05
2022-12-31T17:19:06.395Z,14.11
2022-12-31T17:21:34.455Z,13.89
2022-12-31T17:24:07.009Z,15.25
2022-12-31T17:26:37.962Z,16.38
2022-12-31T17:29:08.042Z,16.55
2022-12-31T17:31:38.455Z,15.50
2022-12-31T17:34:12.440Z,14.46
2022-12-31T17:36:52.214Z,13.72
2022-12-31T17:39:23.127Z,13.48
2022-12-31T17:41:53.177Z,14.53
2022-12-31T17:44:23.782Z,15.28
2022-12-31T17:46:52.981Z,15.81
2022-12-31T17:49:30.512Z,16.18
2022-12-31T17:51:58.783Z,16.39
2022-12-31T17:54:26.717Z,16.35
2022-12-31T17:56:54.796Z,15.56
2022-12-31T17:59:25.820Z,14.76
2022-12-31T18:02:02.744Z,14.19
2022-12-31T18:04:30.826Z,14.02
2022-12-31T18:06:58.783Z,15.36
2022-12-31T18:09:26.830Z,16.54
2022-12-31T18:11:58.289Z,16.88
2022-12-31T18:14:29.650Z,15.93
2022-12-31T18:16:58.518Z,14.91
2022-12-31T18:22:16.658Z,13.44
2022-12-31T18:24:44.845Z,13.31
2022-12-31T18:27:17.616Z,14.54
2022-12-31T18:29:46.193Z,15.49
2022-12-31T18:32:26.255Z,16.17
2022-12-31T18:34:54.684Z,16.22
2022-12-31T18:37:22.919Z,15.12
2022-12-31T18:39:51.031Z,14.12
2022-12-31T18:42:20.456Z,13.38
2022-12-31T18:44:48.586Z,13.16
2022-12-31T18:47:19.525Z,14.40
2022-12-31T18:49:48.736Z,15.48
2022-12-31T18:52:21.781Z,15.72
2022-12-31T18:54:50.395Z,14.61
2022-12-31T18:57:18.612Z,13.53
2022-12-31T18:59:46.704Z,13.11
2022-12-31T19:02:18.796Z,14.18
2022-12-31T19:04:48.305Z,15.03
2022-12-31T19:07:16.405Z,15.19
2022-12-31T19:09:45.967Z,14.13
2022-12-31T19:12:16.626Z,13.01
2022-12-31T19:14:45.735Z,12.57
2022-12-31T19:17:13.675Z,13.56
2022-12-31T19:19:41.703Z,14.35
2022-12-31T19:22:15.195Z,14.68
2022-12-31T19:24:43.257Z,14.89
2022-12-31T19:27:14.901Z,14.65
2022-12-31T19:29:42.932Z,13.57
2022-12-31T19:36:20.286Z,12.48
2022-12-31T19:38:48.275Z,13.64
2022-12-31T19:41:19.392Z,14.29
2022-12-31T19:43:48.087Z,14.63
2022-12-31T19:46:18.846Z,15.04
2022-12-31T19:48:47.173Z,15.51
2022-12-31T19:51:20.454Z,15.64
2022-12-31T19:53:49.767Z,14.54
2022-12-31T19:56:20.082Z,13.47
2022-12-31T19:58:48.460Z,12.98
2022-12-31T20:01:22.323Z,14.10
2022-12-31T20:03:51.486Z,15.19
2022-12-31T20:06:19.779Z,15.89
2022-12-31T20:08:47.802Z,15.97
2022-12-31T20:11:18.844Z,14.84
2022-12-31T20:13:48.482Z,13.75
2022-12-31T20:16:18.450Z,13.00
2022-12-31T20:18:47.556Z,12.74
2022-12-31T20:21:21.698Z,13.83
2022-12-31T20:23:51.251Z,15.12
2022-12-31T20:26:21.317Z,15.93
2022-12-31T20:28:49.394Z,15.92
2022-12-31T20:31:20.323Z,14.70
2022-12-31T20:33:48.606Z,13.56
2022-12-31T20:36:17.740Z,13.14
2022-12-31T20:38:46.343Z,14.35
2022-12-31T20:41:20.407Z,15.37
2022-12-31T20:43:49.463Z,16.01
2022-12-31T20:46:24.517Z,15.97
2022-12-31T20:48:55.060Z,14.78
2022-12-31T20:51:24.278Z,13.66
2022-12-31T20:53:58.023Z,12.89
2022-12-31T20:56:29.218Z,12.73
2022-12-31T20:58:57.593Z,14.13
2022-12-31T21:01:32.206Z,15.04
2022-12-31T21:04:14.512Z,14.91
2022-12-31T21:06:42.511Z,13.65
2022-12-31T21:09:10.797Z,12.52
2022-12-31T21:11:57.347Z,12.04
2022-12-31T21:14:25.421Z,13.36
2022-12-31T21:16:53.559Z,14.45
2022-12-31T21:19:21.610Z,15.02
2022-12-31T21:21:49.949Z,15.11
2022-12-31T21:24:23.617Z,13.82
2022-12-31T21:26:55.044Z,12.35
2022-12-31T21:29:23.262Z,11.86
2022-12-31T21:31:52.250Z,13.20
2022-12-31T21:34:20.267Z,14.41
2022-12-31T21:36:48.388Z,14.74
2022-12-31T21:39:16.418Z,13.56
2022-12-31T21:41:53.498Z,12.26
2022-12-31T21:44:26.001Z,11.74
2022-12-31T21:47:39.516Z,13.02
2022-12-31T21:50:08.189Z,14.17
2022-12-31T21:52:36.335Z,14.04
2022-12-31T21:55:23.924Z,12.84
2022-12-31T21:58:24.812Z,11.57
2022-12-31T22:00:59.592Z,11.34
2022-12-31T22:03:28.632Z,12.86
2022-12-31T22:06:13.155Z,13.65
2022-12-31T22:08:43.903Z,13.95
2022-12-31T22:11:13.139Z,14.36
2022-12-31T22:13:42.879Z,14.74
2022-12-31T22:16:11.357Z,14.65
2022-12-31T22:18:40.968Z,13.36
2022-12-31T22:21:19.034Z,12.12
2022-12-31T22:23:49.876Z,11.78
2022-12-31T22:26:20.269Z,13.24
2022-12-31T22:28:48.562Z,14.39
2022-12-31T22:31:22.851Z,14.60
2022-12-31T22:33:51.555Z,13.30
2022-12-31T22:36:22.264Z,12.01
2022-12-31T22:38:52.457Z,11.50
2022-12-31T22:41:22.521Z,12.79
2022-12-31T22:44:02.236Z,13.87
2022-12-31T22:46:31.856Z,14.85
2022-12-31T22:49:02.543Z,15.21
2022-12-31T22:51:56.516Z,15.04
2022-12-31T22:54:20.308Z,13.52
2022-12-31T22:56:48.369Z,12.42
2022-12-31T22:59:16.421Z,12.07
2022-12-31T23:01:44.552Z,13.13
2022-12-31T23:04:12.845Z,14.08
2022-12-31T23:06:43.719Z,14.59
2022-12-31T23:09:33.338Z,14.51
2022-12-31T23:12:26.940Z,13.16
2022-12-31T23:15:13.255Z,11.94
2022-12-31T23:17:59.844Z,11.61
2022-12-31T23:20:46.523Z,12.92
2022-12-31T23:23:19.144Z,13.78
2022-12-31T23:25:52.000Z,14.53
2022-12-31T23:28:23.075Z,14.52
2022-12-31T23:30:51.981Z,13.32
2022-12-31T23:33:22.975Z,12.20
2022-12-31T23:35:51.221Z,11.82
2022-12-31T23:38:19.255Z,12.93
2022-12-31T23:40:47.320Z,13.41
2022-12-31T23:43:21.274Z,13.33
2022-12-31T23:45:52.530Z,13.37
2022-12-31T23:48:20.720Z,13.68
2022-12-31T23:50:53.502Z,14.14
2022-12-31T23:53:25.507Z,14.07
2022-12-31T23:55:53.817Z,12.73
2022-12-31T23:58:22.341Z,11.58
